sensor_id;sensor_type;location;lat;lon;timestamp;P1;durP1;ratioP1;P2;durP2;ratioP2
65871;SDS011;52653;50.080;21.992;2023-06-19T00:00:44;13.20;;;11.10;;
65871;SDS011;52653;50.080;21.992;2023-06-19T00:03:37;15.30;;;11.00;;
65871;SDS011;52653;50.080;21.992;2023-06-19T00:06:09;15.20;;;12.10;;
65871;SDS011;52653;50.080;21.992;2023-06-19T00:08:43;14.60;;;12.10;;
65871;SDS011;52653;50.080;21.992;2023-06-19T00:11:15;12.80;;;10.10;;
65871;SDS011;52653;50.080;21.992;2023-06-19T00:13:49;12.60;;;10.00;;
65871;SDS011;52653;50.080;21.992;2023-06-19T00:16:22;12.80;;;9.90;;
65871;SDS011;52653;50.080;21.992;2023-06-19T00:18:55;11.70;;;9.80;;
65871;SDS011;52653;50.080;21.992;2023-06-19T00:21:32;12.30;;;10.30;;
65871;SDS011;52653;50.080;21.992;2023-06-19T00:24:04;13.00;;;10.60;;
65871;SDS011;52653;50.080;21.992;2023-06-19T00:26:40;13.00;;;9.40;;
65871;SDS011;52653;50.080;21.992;2023-06-19T00:29:13;13.90;;;11.00;;
65871;SDS011;52653;50.080;21.992;2023-06-19T00:31:46;12.40;;;10.30;;
65871;SDS011;52653;50.080;21.992;2023-06-19T00:34:19;15.40;;;11.20;;
65871;SDS011;52653;50.080;21.992;2023-06-19T00:36:53;13.40;;;11.70;;
65871;SDS011;52653;50.080;21.992;2023-06-19T00:39:26;13.60;;;10.30;;
65871;SDS011;52653;50.080;21.992;2023-06-19T00:41:59;15.10;;;10.80;;
65871;SDS011;52653;50.080;21.992;2023-06-19T00:44:32;14.40;;;12.00;;
65871;SDS011;52653;50.080;21.992;2023-06-19T00:47:05;14.30;;;11.00;;
65871;SDS011;52653;50.080;21.992;2023-06-19T00:49:38;14.40;;;12.20;;
65871;SDS011;52653;50.080;21.992;2023-06-19T00:52:11;14.90;;;12.70;;
65871;SDS011;52653;50.080;21.992;2023-06-19T00:54:45;14.10;;;12.60;;
65871;SDS011;52653;50.080;21.992;2023-06-19T00:57:17;15.10;;;12.30;;
65871;SDS011;52653;50.080;21.992;2023-06-19T00:59:50;14.40;;;12.40;;
65871;SDS011;52653;50.080;21.992;2023-06-19T01:02:24;15.10;;;11.50;;
65871;SDS011;52653;50.080;21.992;2023-06-19T01:04:57;17.50;;;13.30;;
65871;SDS011;52653;50.080;21.992;2023-06-19T01:07:31;15.80;;;12.60;;
65871;SDS011;52653;50.080;21.992;2023-06-19T01:10:16;15.10;;;13.30;;
65871;SDS011;52653;50.080;21.992;2023-06-19T01:12:56;14.70;;;12.50;;
65871;SDS011;52653;50.080;21.992;2023-06-19T01:15:31;15.70;;;13.40;;
65871;SDS011;52653;50.080;21.992;2023-06-19T01:18:07;15.30;;;12.50;;
65871;SDS011;52653;50.080;21.992;2023-06-19T01:20:41;16.30;;;13.80;;
65871;SDS011;52653;50.080;21.992;2023-06-19T01:23:13;19.00;;;14.20;;
65871;SDS011;52653;50.080;21.992;2023-06-19T01:25:46;18.60;;;14.80;;
65871;SDS011;52653;50.080;21.992;2023-06-19T01:28:19;17.00;;;14.60;;
65871;SDS011;52653;50.080;21.992;2023-06-19T01:30:54;17.80;;;14.90;;
65871;SDS011;52653;50.080;21.992;2023-06-19T01:33:29;16.70;;;13.80;;
65871;SDS011;52653;50.080;21.992;2023-06-19T01:36:05;18.10;;;13.60;;
65871;SDS011;52653;50.080;21.992;2023-06-19T01:38:40;15.30;;;12.90;;
65871;SDS011;52653;50.080;21.992;2023-06-19T01:41:14;16.80;;;14.40;;
65871;SDS011;52653;50.080;21.992;2023-06-19T01:43:49;18.00;;;14.10;;
65871;SDS011;52653;50.080;21.992;2023-06-19T01:46:22;16.10;;;14.10;;
65871;SDS011;52653;50.080;21.992;2023-06-19T01:48:55;18.10;;;13.60;;
65871;SDS011;52653;50.080;21.992;2023-06-19T01:51:28;17.00;;;13.80;;
65871;SDS011;52653;50.080;21.992;2023-06-19T01:54:02;16.10;;;13.10;;
65871;SDS011;52653;50.080;21.992;2023-06-19T01:56:37;15.00;;;13.20;;
65871;SDS011;52653;50.080;21.992;2023-06-19T01:59:10;15.30;;;12.70;;
65871;SDS011;52653;50.080;21.992;2023-06-19T02:01:42;14.00;;;12.20;;
65871;SDS011;52653;50.080;21.992;2023-06-19T02:04:15;16.90;;;12.50;;
65871;SDS011;52653;50.080;21.992;2023-06-19T02:06:47;21.30;;;13.10;;
65871;SDS011;52653;50.080;21.992;2023-06-19T02:09:20;15.90;;;13.60;;
65871;SDS011;52653;50.080;21.992;2023-06-19T02:11:52;14.40;;;12.90;;
65871;SDS011;52653;50.080;21.992;2023-06-19T02:14:26;15.10;;;11.70;;
65871;SDS011;52653;50.080;21.992;2023-06-19T02:16:58;14.40;;;10.40;;
65871;SDS011;52653;50.080;21.992;2023-06-19T02:19:31;13.30;;;10.80;;
65871;SDS011;52653;50.080;21.992;2023-06-19T02:22:04;11.60;;;9.90;;
65871;SDS011;52653;50.080;21.992;2023-06-19T02:24:37;11.60;;;10.30;;
65871;SDS011;52653;50.080;21.992;2023-06-19T02:27:10;11.90;;;9.20;;
65871;SDS011;52653;50.080;21.992;2023-06-19T02:29:46;14.10;;;10.90;;
65871;SDS011;52653;50.080;21.992;2023-06-19T02:32:20;12.90;;;11.20;;
65871;SDS011;52653;50.080;21.992;2023-06-19T02:34:53;14.70;;;10.70;;
65871;SDS011;52653;50.080;21.992;2023-06-19T02:37:25;13.60;;;10.70;;
65871;SDS011;52653;50.080;21.992;2023-06-19T02:39:59;11.70;;;9.60;;
65871;SDS011;52653;50.080;21.992;2023-06-19T02:42:34;15.70;;;10.50;;
65871;SDS011;52653;50.080;21.992;2023-06-19T02:45:08;12.10;;;10.70;;
65871;SDS011;52653;50.080;21.992;2023-06-19T02:47:42;12.40;;;10.60;;
65871;SDS011;52653;50.080;21.992;2023-06-19T02:50:18;14.00;;;11.00;;
65871;SDS011;52653;50.080;21.992;2023-06-19T02:52:52;12.10;;;10.50;;
65871;SDS011;52653;50.080;21.992;2023-06-19T02:55:25;12.00;;;10.00;;
65871;SDS011;52653;50.080;21.992;2023-06-19T02:57:58;12.70;;;9.50;;
65871;SDS011;52653;50.080;21.992;2023-06-19T03:00:31;14.10;;;10.20;;
65871;SDS011;52653;50.080;21.992;2023-06-19T03:03:04;13.40;;;11.10;;
65871;SDS011;52653;50.080;21.992;2023-06-19T03:05:37;13.00;;;10.20;;
65871;SDS011;52653;50.080;21.992;2023-06-19T03:08:10;11.20;;;9.70;;
65871;SDS011;52653;50.080;21.992;2023-06-19T03:10:43;13.10;;;11.00;;
65871;SDS011;52653;50.080;21.992;2023-06-19T03:13:16;13.50;;;11.60;;
65871;SDS011;52653;50.080;21.992;2023-06-19T03:15:48;13.80;;;11.10;;
65871;SDS011;52653;50.080;21.992;2023-06-19T03:18:22;14.20;;;9.00;;
65871;SDS011;52653;50.080;21.992;2023-06-19T03:20:54;10.60;;;8.80;;
65871;SDS011;52653;50.080;21.992;2023-06-19T03:23:27;11.50;;;8.60;;
65871;SDS011;52653;50.080;21.992;2023-06-19T03:26:00;23.40;;;19.90;;
65871;SDS011;52653;50.080;21.992;2023-06-19T03:28:33;26.30;;;22.10;;
65871;SDS011;52653;50.080;21.992;2023-06-19T03:31:08;41.30;;;35.20;;
65871;SDS011;52653;50.080;21.992;2023-06-19T03:33:41;40.50;;;35.70;;
65871;SDS011;52653;50.080;21.992;2023-06-19T03:36:14;37.50;;;33.40;;
65871;SDS011;52653;50.080;21.992;2023-06-19T03:38:51;40.20;;;32.70;;
65871;SDS011;52653;50.080;21.992;2023-06-19T03:41:29;42.60;;;35.70;;
65871;SDS011;52653;50.080;21.992;2023-06-19T03:44:01;39.50;;;34.50;;
65871;SDS011;52653;50.080;21.992;2023-06-19T03:46:34;33.00;;;29.30;;
65871;SDS011;52653;50.080;21.992;2023-06-19T03:49:07;23.60;;;20.70;;
65871;SDS011;52653;50.080;21.992;2023-06-19T03:51:40;24.20;;;21.60;;
65871;SDS011;52653;50.080;21.992;2023-06-19T03:54:13;21.00;;;18.80;;
65871;SDS011;52653;50.080;21.992;2023-06-19T03:56:45;17.90;;;15.90;;
65871;SDS011;52653;50.080;21.992;2023-06-19T03:59:19;16.10;;;14.30;;
65871;SDS011;52653;50.080;21.992;2023-06-19T04:01:54;14.90;;;13.40;;
65871;SDS011;52653;50.080;21.992;2023-06-19T04:04:27;13.20;;;11.80;;
65871;SDS011;52653;50.080;21.992;2023-06-19T04:07:01;13.50;;;11.80;;
65871;SDS011;52653;50.080;21.992;2023-06-19T04:09:34;12.60;;;11.20;;
65871;SDS011;52653;50.080;21.992;2023-06-19T04:12:07;12.20;;;10.90;;
65871;SDS011;52653;50.080;21.992;2023-06-19T04:14:41;12.50;;;10.70;;
65871;SDS011;52653;50.080;21.992;2023-06-19T04:17:14;12.90;;;10.60;;
65871;SDS011;52653;50.080;21.992;2023-06-19T04:19:51;12.70;;;10.10;;
65871;SDS011;52653;50.080;21.992;2023-06-19T04:22:24;10.70;;;9.50;;
65871;SDS011;52653;50.080;21.992;2023-06-19T04:24:56;11.00;;;9.50;;
65871;SDS011;52653;50.080;21.992;2023-06-19T04:27:30;11.70;;;9.70;;
65871;SDS011;52653;50.080;21.992;2023-06-19T04:30:03;11.00;;;9.10;;
65871;SDS011;52653;50.080;21.992;2023-06-19T04:32:37;10.90;;;8.90;;
65871;SDS011;52653;50.080;21.992;2023-06-19T04:35:10;9.70;;;8.50;;
65871;SDS011;52653;50.080;21.992;2023-06-19T04:37:43;9.20;;;8.30;;
65871;SDS011;52653;50.080;21.992;2023-06-19T04:40:18;8.90;;;8.00;;
65871;SDS011;52653;50.080;21.992;2023-06-19T04:42:51;10.00;;;8.00;;
65871;SDS011;52653;50.080;21.992;2023-06-19T04:45:24;10.10;;;8.40;;
65871;SDS011;52653;50.080;21.992;2023-06-19T04:47:57;9.20;;;7.50;;
65871;SDS011;52653;50.080;21.992;2023-06-19T04:50:32;10.40;;;7.90;;
65871;SDS011;52653;50.080;21.992;2023-06-19T04:53:07;8.20;;;7.40;;
65871;SDS011;52653;50.080;21.992;2023-06-19T04:55:45;8.80;;;7.90;;
65871;SDS011;52653;50.080;21.992;2023-06-19T04:58:19;9.00;;;7.80;;
65871;SDS011;52653;50.080;21.992;2023-06-19T05:00:51;9.80;;;7.90;;
65871;SDS011;52653;50.080;21.992;2023-06-19T05:03:24;11.40;;;7.50;;
65871;SDS011;52653;50.080;21.992;2023-06-19T05:05:58;8.00;;;7.10;;
65871;SDS011;52653;50.080;21.992;2023-06-19T05:08:31;7.70;;;6.60;;
65871;SDS011;52653;50.080;21.992;2023-06-19T05:11:04;9.80;;;7.00;;
65871;SDS011;52653;50.080;21.992;2023-06-19T05:13:36;9.00;;;7.00;;
65871;SDS011;52653;50.080;21.992;2023-06-19T05:16:09;8.10;;;6.90;;
65871;SDS011;52653;50.080;21.992;2023-06-19T05:18:46;8.30;;;7.40;;
65871;SDS011;52653;50.080;21.992;2023-06-19T05:21:20;10.60;;;7.50;;
65871;SDS011;52653;50.080;21.992;2023-06-19T05:23:53;9.70;;;7.40;;
65871;SDS011;52653;50.080;21.992;2023-06-19T05:26:25;10.00;;;7.60;;
65871;SDS011;52653;50.080;21.992;2023-06-19T05:28:58;10.70;;;8.00;;
65871;SDS011;52653;50.080;21.992;2023-06-19T05:31:31;8.10;;;7.20;;
65871;SDS011;52653;50.080;21.992;2023-06-19T05:34:04;9.10;;;7.70;;
65871;SDS011;52653;50.080;21.992;2023-06-19T05:36:36;9.30;;;8.20;;
65871;SDS011;52653;50.080;21.992;2023-06-19T05:39:10;10.90;;;8.70;;
65871;SDS011;52653;50.080;21.992;2023-06-19T05:41:42;8.80;;;7.90;;
65871;SDS011;52653;50.080;21.992;2023-06-19T05:44:16;9.10;;;7.60;;
65871;SDS011;52653;50.080;21.992;2023-06-19T05:46:49;9.50;;;8.20;;
65871;SDS011;52653;50.080;21.992;2023-06-19T05:49:22;9.10;;;7.80;;
65871;SDS011;52653;50.080;21.992;2023-06-19T05:51:54;8.70;;;7.80;;
65871;SDS011;52653;50.080;21.992;2023-06-19T05:54:28;10.30;;;8.60;;
65871;SDS011;52653;50.080;21.992;2023-06-19T05:57:02;9.70;;;8.40;;
65871;SDS011;52653;50.080;21.992;2023-06-19T05:59:36;8.80;;;7.80;;
65871;SDS011;52653;50.080;21.992;2023-06-19T06:02:08;9.80;;;8.60;;
65871;SDS011;52653;50.080;21.992;2023-06-19T06:04:41;11.20;;;8.50;;
65871;SDS011;52653;50.080;21.992;2023-06-19T06:07:14;10.30;;;8.30;;
65871;SDS011;52653;50.080;21.992;2023-06-19T06:09:48;11.00;;;8.60;;
65871;SDS011;52653;50.080;21.992;2023-06-19T06:12:20;11.50;;;9.20;;
65871;SDS011;52653;50.080;21.992;2023-06-19T06:14:53;10.00;;;8.60;;
65871;SDS011;52653;50.080;21.992;2023-06-19T06:17:26;10.10;;;9.10;;
65871;SDS011;52653;50.080;21.992;2023-06-19T06:19:59;9.50;;;8.50;;
65871;SDS011;52653;50.080;21.992;2023-06-19T06:22:35;9.60;;;8.60;;
65871;SDS011;52653;50.080;21.992;2023-06-19T06:25:09;10.50;;;9.30;;
65871;SDS011;52653;50.080;21.992;2023-06-19T06:27:42;10.20;;;9.20;;
65871;SDS011;52653;50.080;21.992;2023-06-19T06:30:15;10.30;;;9.20;;
65871;SDS011;52653;50.080;21.992;2023-06-19T06:32:49;10.80;;;9.30;;
65871;SDS011;52653;50.080;21.992;2023-06-19T06:35:23;10.20;;;9.10;;
65871;SDS011;52653;50.080;21.992;2023-06-19T06:37:56;11.10;;;9.20;;
65871;SDS011;52653;50.080;21.992;2023-06-19T06:40:28;11.30;;;8.70;;
65871;SDS011;52653;50.080;21.992;2023-06-19T06:43:01;9.90;;;8.50;;
65871;SDS011;52653;50.080;21.992;2023-06-19T06:45:34;10.70;;;9.20;;
65871;SDS011;52653;50.080;21.992;2023-06-19T06:48:09;9.30;;;8.30;;
65871;SDS011;52653;50.080;21.992;2023-06-19T06:50:43;11.30;;;8.80;;
65871;SDS011;52653;50.080;21.992;2023-06-19T06:53:15;9.80;;;8.80;;
65871;SDS011;52653;50.080;21.992;2023-06-19T06:55:48;9.60;;;8.60;;
65871;SDS011;52653;50.080;21.992;2023-06-19T06:58:20;10.70;;;8.90;;
65871;SDS011;52653;50.080;21.992;2023-06-19T07:00:54;9.70;;;8.40;;
65871;SDS011;52653;50.080;21.992;2023-06-19T07:03:27;9.30;;;8.20;;
65871;SDS011;52653;50.080;21.992;2023-06-19T07:06:01;8.90;;;8.00;;
65871;SDS011;52653;50.080;21.992;2023-06-19T07:08:34;9.30;;;8.00;;
65871;SDS011;52653;50.080;21.992;2023-06-19T07:11:06;10.10;;;8.30;;
65871;SDS011;52653;50.080;21.992;2023-06-19T07:13:41;8.60;;;7.30;;
65871;SDS011;52653;50.080;21.992;2023-06-19T07:16:14;8.70;;;7.30;;
65871;SDS011;52653;50.080;21.992;2023-06-19T07:18:46;8.90;;;7.40;;
65871;SDS011;52653;50.080;21.992;2023-06-19T07:21:19;10.20;;;7.40;;
65871;SDS011;52653;50.080;21.992;2023-06-19T07:23:52;9.40;;;7.10;;
65871;SDS011;52653;50.080;21.992;2023-06-19T07:26:25;10.30;;;8.00;;
65871;SDS011;52653;50.080;21.992;2023-06-19T07:28:58;10.00;;;8.70;;
65871;SDS011;52653;50.080;21.992;2023-06-19T07:31:30;8.10;;;7.10;;
65871;SDS011;52653;50.080;21.992;2023-06-19T07:34:03;9.00;;;7.40;;
65871;SDS011;52653;50.080;21.992;2023-06-19T07:36:36;9.00;;;7.60;;
65871;SDS011;52653;50.080;21.992;2023-06-19T07:39:10;9.80;;;8.50;;
65871;SDS011;52653;50.080;21.992;2023-06-19T07:41:46;10.30;;;8.70;;
65871;SDS011;52653;50.080;21.992;2023-06-19T07:44:19;9.40;;;8.40;;
65871;SDS011;52653;50.080;21.992;2023-06-19T07:46:51;9.10;;;7.80;;
65871;SDS011;52653;50.080;21.992;2023-06-19T07:49:30;10.00;;;8.30;;
65871;SDS011;52653;50.080;21.992;2023-06-19T07:52:02;9.70;;;8.70;;
65871;SDS011;52653;50.080;21.992;2023-06-19T07:54:36;10.20;;;9.10;;
65871;SDS011;52653;50.080;21.992;2023-06-19T07:57:18;12.50;;;8.50;;
65871;SDS011;52653;50.080;21.992;2023-06-19T07:59:53;9.20;;;8.30;;
65871;SDS011;52653;50.080;21.992;2023-06-19T08:02:26;9.40;;;8.40;;
65871;SDS011;52653;50.080;21.992;2023-06-19T08:04:59;9.00;;;8.10;;
65871;SDS011;52653;50.080;21.992;2023-06-19T08:07:32;9.80;;;8.00;;
65871;SDS011;52653;50.080;21.992;2023-06-19T08:10:06;9.70;;;8.60;;
65871;SDS011;52653;50.080;21.992;2023-06-19T08:12:43;9.50;;;8.20;;
65871;SDS011;52653;50.080;21.992;2023-06-19T08:15:16;9.60;;;8.30;;
65871;SDS011;52653;50.080;21.992;2023-06-19T08:17:49;9.80;;;8.10;;
65871;SDS011;52653;50.080;21.992;2023-06-19T08:20:21;9.50;;;8.30;;
65871;SDS011;52653;50.080;21.992;2023-06-19T08:22:56;9.00;;;8.10;;
65871;SDS011;52653;50.080;21.992;2023-06-19T08:25:29;8.90;;;8.00;;
65871;SDS011;52653;50.080;21.992;2023-06-19T08:28:02;8.80;;;7.70;;
65871;SDS011;52653;50.080;21.992;2023-06-19T08:30:35;8.50;;;7.60;;
65871;SDS011;52653;50.080;21.992;2023-06-19T08:33:08;9.80;;;8.40;;
65871;SDS011;52653;50.080;21.992;2023-06-19T08:35:47;9.30;;;8.20;;
65871;SDS011;52653;50.080;21.992;2023-06-19T08:38:20;8.50;;;7.40;;
65871;SDS011;52653;50.080;21.992;2023-06-19T08:40:53;8.60;;;7.80;;
65871;SDS011;52653;50.080;21.992;2023-06-19T08:43:26;12.40;;;8.80;;
65871;SDS011;52653;50.080;21.992;2023-06-19T08:46:01;9.90;;;8.80;;
65871;SDS011;52653;50.080;21.992;2023-06-19T08:48:40;9.60;;;8.40;;
65871;SDS011;52653;50.080;21.992;2023-06-19T08:51:13;10.20;;;8.30;;
65871;SDS011;52653;50.080;21.992;2023-06-19T08:53:46;8.20;;;7.40;;
65871;SDS011;52653;50.080;21.992;2023-06-19T08:56:21;9.30;;;8.10;;
65871;SDS011;52653;50.080;21.992;2023-06-19T08:58:55;9.60;;;8.60;;
65871;SDS011;52653;50.080;21.992;2023-06-19T09:01:27;9.20;;;7.90;;
65871;SDS011;52653;50.080;21.992;2023-06-19T09:04:08;9.20;;;8.30;;
65871;SDS011;52653;50.080;21.992;2023-06-19T09:06:49;9.90;;;8.50;;
65871;SDS011;52653;50.080;21.992;2023-06-19T09:09:25;9.20;;;8.40;;
65871;SDS011;52653;50.080;21.992;2023-06-19T09:12:01;8.70;;;7.90;;
65871;SDS011;52653;50.080;21.992;2023-06-19T09:14:39;9.60;;;8.50;;
65871;SDS011;52653;50.080;21.992;2023-06-19T09:17:17;9.50;;;8.50;;
65871;SDS011;52653;50.080;21.992;2023-06-19T09:19:53;9.70;;;8.80;;
65871;SDS011;52653;50.080;21.992;2023-06-19T09:22:28;10.50;;;9.30;;
65871;SDS011;52653;50.080;21.992;2023-06-19T09:25:01;10.30;;;9.30;;
65871;SDS011;52653;50.080;21.992;2023-06-19T09:27:36;10.00;;;9.00;;
65871;SDS011;52653;50.080;21.992;2023-06-19T09:30:14;9.30;;;8.40;;
65871;SDS011;52653;50.080;21.992;2023-06-19T09:32:48;9.10;;;8.20;;
65871;SDS011;52653;50.080;21.992;2023-06-19T09:35:21;9.40;;;8.40;;
65871;SDS011;52653;50.080;21.992;2023-06-19T09:37:56;9.10;;;8.20;;
65871;SDS011;52653;50.080;21.992;2023-06-19T09:40:31;8.70;;;7.90;;
65871;SDS011;52653;50.080;21.992;2023-06-19T09:43:04;7.70;;;6.90;;
65871;SDS011;52653;50.080;21.992;2023-06-19T09:45:37;8.80;;;7.50;;
65871;SDS011;52653;50.080;21.992;2023-06-19T09:48:11;9.00;;;7.90;;
65871;SDS011;52653;50.080;21.992;2023-06-19T09:50:53;8.50;;;7.20;;
65871;SDS011;52653;50.080;21.992;2023-06-19T09:53:30;9.10;;;7.40;;
65871;SDS011;52653;50.080;21.992;2023-06-19T09:56:05;8.50;;;7.60;;
65871;SDS011;52653;50.080;21.992;2023-06-19T09:58:39;8.40;;;7.50;;
65871;SDS011;52653;50.080;21.992;2023-06-19T10:01:15;8.00;;;6.90;;
65871;SDS011;52653;50.080;21.992;2023-06-19T10:03:48;8.80;;;7.50;;
65871;SDS011;52653;50.080;21.992;2023-06-19T10:06:22;8.50;;;7.60;;
65871;SDS011;52653;50.080;21.992;2023-06-19T10:08:55;9.10;;;7.90;;
65871;SDS011;52653;50.080;21.992;2023-06-19T10:11:48;8.40;;;7.50;;
65871;SDS011;52653;50.080;21.992;2023-06-19T10:14:22;8.10;;;7.20;;
65871;SDS011;52653;50.080;21.992;2023-06-19T10:16:54;9.10;;;8.20;;
65871;SDS011;52653;50.080;21.992;2023-06-19T10:19:27;12.10;;;9.80;;
65871;SDS011;52653;50.080;21.992;2023-06-19T10:22:04;9.10;;;8.20;;
65871;SDS011;52653;50.080;21.992;2023-06-19T10:24:37;9.30;;;8.40;;
65871;SDS011;52653;50.080;21.992;2023-06-19T10:27:21;8.40;;;7.60;;
65871;SDS011;52653;50.080;21.992;2023-06-19T10:29:55;8.40;;;7.00;;
65871;SDS011;52653;50.080;21.992;2023-06-19T10:32:39;9.00;;;7.50;;
65871;SDS011;52653;50.080;21.992;2023-06-19T10:35:12;8.10;;;7.00;;
65871;SDS011;52653;50.080;21.992;2023-06-19T10:37:45;8.30;;;7.50;;
65871;SDS011;52653;50.080;21.992;2023-06-19T10:40:18;8.10;;;6.80;;
65871;SDS011;52653;50.080;21.992;2023-06-19T10:42:51;8.90;;;8.00;;
65871;SDS011;52653;50.080;21.992;2023-06-19T10:45:24;7.90;;;7.10;;
65871;SDS011;52653;50.080;21.992;2023-06-19T10:48:00;7.90;;;7.10;;
65871;SDS011;52653;50.080;21.992;2023-06-19T10:50:37;8.30;;;6.80;;
65871;SDS011;52653;50.080;21.992;2023-06-19T10:53:23;8.30;;;7.50;;
65871;SDS011;52653;50.080;21.992;2023-06-19T10:55:57;8.10;;;7.30;;
65871;SDS011;52653;50.080;21.992;2023-06-19T10:58:31;8.70;;;7.80;;
65871;SDS011;52653;50.080;21.992;2023-06-19T11:01:03;9.90;;;7.70;;
65871;SDS011;52653;50.080;21.992;2023-06-19T11:03:36;8.90;;;7.50;;
65871;SDS011;52653;50.080;21.992;2023-06-19T11:06:09;8.10;;;7.30;;
65871;SDS011;52653;50.080;21.992;2023-06-19T11:08:50;8.10;;;7.30;;
65871;SDS011;52653;50.080;21.992;2023-06-19T11:11:23;7.60;;;6.90;;
65871;SDS011;52653;50.080;21.992;2023-06-19T11:14:04;8.20;;;7.30;;
65871;SDS011;52653;50.080;21.992;2023-06-19T11:16:39;8.30;;;7.20;;
65871;SDS011;52653;50.080;21.992;2023-06-19T11:19:15;7.60;;;6.90;;
65871;SDS011;52653;50.080;21.992;2023-06-19T11:21:50;8.60;;;7.60;;
65871;SDS011;52653;50.080;21.992;2023-06-19T11:24:24;8.00;;;7.20;;
65871;SDS011;52653;50.080;21.992;2023-06-19T11:26:56;8.20;;;7.40;;
65871;SDS011;52653;50.080;21.992;2023-06-19T11:29:30;7.80;;;7.00;;
65871;SDS011;52653;50.080;21.992;2023-06-19T11:32:07;8.20;;;7.40;;
65871;SDS011;52653;50.080;21.992;2023-06-19T11:34:41;8.00;;;7.20;;
65871;SDS011;52653;50.080;21.992;2023-06-19T11:37:14;7.40;;;6.70;;
65871;SDS011;52653;50.080;21.992;2023-06-19T11:39:49;7.80;;;7.10;;
65871;SDS011;52653;50.080;21.992;2023-06-19T11:42:23;8.30;;;7.40;;
65871;SDS011;52653;50.080;21.992;2023-06-19T11:44:56;8.30;;;7.10;;
65871;SDS011;52653;50.080;21.992;2023-06-19T11:47:31;8.00;;;7.30;;
65871;SDS011;52653;50.080;21.992;2023-06-19T11:50:09;7.80;;;7.00;;
65871;SDS011;52653;50.080;21.992;2023-06-19T11:52:43;7.70;;;6.90;;
65871;SDS011;52653;50.080;21.992;2023-06-19T11:55:17;12.40;;;7.50;;
65871;SDS011;52653;50.080;21.992;2023-06-19T11:57:50;9.90;;;7.10;;
65871;SDS011;52653;50.080;21.992;2023-06-19T12:00:23;11.90;;;7.50;;
65871;SDS011;52653;50.080;21.992;2023-06-19T12:02:56;7.70;;;6.60;;
65871;SDS011;52653;50.080;21.992;2023-06-19T12:05:29;7.80;;;7.10;;
65871;SDS011;52653;50.080;21.992;2023-06-19T12:08:02;8.50;;;7.60;;
65871;SDS011;52653;50.080;21.992;2023-06-19T12:10:36;7.80;;;7.10;;
65871;SDS011;52653;50.080;21.992;2023-06-19T12:13:08;9.20;;;8.20;;
65871;SDS011;52653;50.080;21.992;2023-06-19T12:15:41;9.30;;;7.70;;
65871;SDS011;52653;50.080;21.992;2023-06-19T12:18:14;8.30;;;7.50;;
65871;SDS011;52653;50.080;21.992;2023-06-19T12:20:47;7.70;;;6.90;;
65871;SDS011;52653;50.080;21.992;2023-06-19T12:23:19;7.80;;;7.00;;
65871;SDS011;52653;50.080;21.992;2023-06-19T12:25:52;7.50;;;6.80;;
65871;SDS011;52653;50.080;21.992;2023-06-19T12:28:26;8.20;;;7.40;;
65871;SDS011;52653;50.080;21.992;2023-06-19T12:31:00;8.30;;;6.80;;
65871;SDS011;52653;50.080;21.992;2023-06-19T12:33:34;7.60;;;6.40;;
65871;SDS011;52653;50.080;21.992;2023-06-19T12:36:12;7.20;;;6.50;;
65871;SDS011;52653;50.080;21.992;2023-06-19T12:38:48;7.80;;;7.00;;
65871;SDS011;52653;50.080;21.992;2023-06-19T12:41:23;8.70;;;7.50;;
65871;SDS011;52653;50.080;21.992;2023-06-19T12:43:56;9.10;;;7.30;;
65871;SDS011;52653;50.080;21.992;2023-06-19T12:46:29;8.60;;;7.80;;
65871;SDS011;52653;50.080;21.992;2023-06-19T12:49:02;8.00;;;7.20;;
65871;SDS011;52653;50.080;21.992;2023-06-19T12:51:35;7.70;;;6.90;;
65871;SDS011;52653;50.080;21.992;2023-06-19T12:54:08;7.90;;;7.10;;
65871;SDS011;52653;50.080;21.992;2023-06-19T12:56:42;7.50;;;6.80;;
65871;SDS011;52653;50.080;21.992;2023-06-19T12:59:15;7.60;;;6.80;;
65871;SDS011;52653;50.080;21.992;2023-06-19T13:01:48;6.60;;;6.00;;
65871;SDS011;52653;50.080;21.992;2023-06-19T13:04:21;7.20;;;6.50;;
65871;SDS011;52653;50.080;21.992;2023-06-19T13:06:54;7.10;;;6.30;;
65871;SDS011;52653;50.080;21.992;2023-06-19T13:09:29;7.80;;;5.80;;
65871;SDS011;52653;50.080;21.992;2023-06-19T13:12:03;6.80;;;6.10;;
65871;SDS011;52653;50.080;21.992;2023-06-19T13:14:36;7.40;;;5.90;;
65871;SDS011;52653;50.080;21.992;2023-06-19T13:17:09;6.90;;;6.00;;
65871;SDS011;52653;50.080;21.992;2023-06-19T13:19:42;6.90;;;5.80;;
65871;SDS011;52653;50.080;21.992;2023-06-19T13:22:16;8.00;;;6.00;;
65871;SDS011;52653;50.080;21.992;2023-06-19T13:24:52;6.90;;;6.10;;
65871;SDS011;52653;50.080;21.992;2023-06-19T13:27:26;6.60;;;5.90;;
65871;SDS011;52653;50.080;21.992;2023-06-19T13:29:59;6.50;;;5.80;;
65871;SDS011;52653;50.080;21.992;2023-06-19T13:32:33;6.80;;;5.90;;
65871;SDS011;52653;50.080;21.992;2023-06-19T13:35:07;7.40;;;5.80;;
65871;SDS011;52653;50.080;21.992;2023-06-19T13:37:40;6.80;;;6.10;;
65871;SDS011;52653;50.080;21.992;2023-06-19T13:40:13;7.10;;;5.70;;
65871;SDS011;52653;50.080;21.992;2023-06-19T13:42:46;6.90;;;5.80;;
65871;SDS011;52653;50.080;21.992;2023-06-19T13:45:19;6.90;;;5.60;;
65871;SDS011;52653;50.080;21.992;2023-06-19T13:47:54;6.10;;;5.50;;
65871;SDS011;52653;50.080;21.992;2023-06-19T13:50:27;8.70;;;5.80;;
65871;SDS011;52653;50.080;21.992;2023-06-19T13:52:59;8.30;;;5.80;;
65871;SDS011;52653;50.080;21.992;2023-06-19T13:55:33;8.10;;;6.30;;
65871;SDS011;52653;50.080;21.992;2023-06-19T13:58:06;6.70;;;5.90;;
65871;SDS011;52653;50.080;21.992;2023-06-19T14:00:39;8.00;;;6.70;;
65871;SDS011;52653;50.080;21.992;2023-06-19T14:03:12;7.90;;;6.60;;
65871;SDS011;52653;50.080;21.992;2023-06-19T14:05:45;7.90;;;7.10;;
65871;SDS011;52653;50.080;21.992;2023-06-19T14:08:17;7.60;;;6.80;;
65871;SDS011;52653;50.080;21.992;2023-06-19T14:10:50;8.20;;;7.30;;
65871;SDS011;52653;50.080;21.992;2023-06-19T14:13:25;8.30;;;7.20;;
65871;SDS011;52653;50.080;21.992;2023-06-19T14:15:58;9.20;;;8.30;;
65871;SDS011;52653;50.080;21.992;2023-06-19T14:18:31;8.80;;;7.80;;
65871;SDS011;52653;50.080;21.992;2023-06-19T14:21:06;8.40;;;7.60;;
65871;SDS011;52653;50.080;21.992;2023-06-19T14:23:39;9.90;;;7.80;;
65871;SDS011;52653;50.080;21.992;2023-06-19T14:26:14;8.80;;;7.90;;
65871;SDS011;52653;50.080;21.992;2023-06-19T14:28:47;8.30;;;7.50;;
65871;SDS011;52653;50.080;21.992;2023-06-19T14:33:55;9.10;;;7.00;;
65871;SDS011;52653;50.080;21.992;2023-06-19T14:36:28;8.10;;;7.00;;
65871;SDS011;52653;50.080;21.992;2023-06-19T14:39:01;7.80;;;7.00;;
65871;SDS011;52653;50.080;21.992;2023-06-19T14:41:34;8.50;;;7.60;;
65871;SDS011;52653;50.080;21.992;2023-06-19T14:44:06;8.30;;;7.40;;
65871;SDS011;52653;50.080;21.992;2023-06-19T14:46:39;8.60;;;7.80;;
65871;SDS011;52653;50.080;21.992;2023-06-19T14:49:12;7.90;;;7.00;;
65871;SDS011;52653;50.080;21.992;2023-06-19T14:51:45;8.30;;;7.30;;
65871;SDS011;52653;50.080;21.992;2023-06-19T14:54:18;10.60;;;7.40;;
65871;SDS011;52653;50.080;21.992;2023-06-19T14:56:50;9.70;;;7.80;;
65871;SDS011;52653;50.080;21.992;2023-06-19T14:59:23;8.70;;;7.80;;
65871;SDS011;52653;50.080;21.992;2023-06-19T15:01:55;8.40;;;7.50;;
65871;SDS011;52653;50.080;21.992;2023-06-19T15:04:28;8.00;;;7.20;;
65871;SDS011;52653;50.080;21.992;2023-06-19T15:07:01;7.90;;;7.20;;